sensor_id;sensor_type;location;lat;lon;timestamp;P1;durP1;ratioP1;P2;durP2;ratioP2
3959;SDS011;1994;48.640;8.894;2022-09-19T00:01:41;1.80;;;0.90;;
3959;SDS011;1994;48.640;8.894;2022-09-19T00:04:11;0.97;;;0.87;;
3959;SDS011;1994;48.640;8.894;2022-09-19T00:07:04;0.90;;;0.67;;
3959;SDS011;1994;48.640;8.894;2022-09-19T00:09:30;0.70;;;0.70;;
3959;SDS011;1994;48.640;8.894;2022-09-19T00:11:58;1.97;;;1.77;;
3959;SDS011;1994;48.640;8.894;2022-09-19T00:14:26;1.07;;;0.70;;
3959;SDS011;1994;48.640;8.894;2022-09-19T00:16:57;0.93;;;0.70;;
3959;SDS011;1994;48.640;8.894;2022-09-19T00:19:27;1.00;;;0.70;;
3959;SDS011;1994;48.640;8.894;2022-09-19T00:21:55;0.70;;;0.63;;
3959;SDS011;1994;48.640;8.894;2022-09-19T00:24:23;0.80;;;0.60;;
3959;SDS011;1994;48.640;8.894;2022-09-19T00:27:08;0.90;;;0.80;;
3959;SDS011;1994;48.640;8.894;2022-09-19T00:29:36;0.70;;;0.60;;
3959;SDS011;1994;48.640;8.894;2022-09-19T00:32:04;0.90;;;0.70;;
3959;SDS011;1994;48.640;8.894;2022-09-19T00:34:32;0.70;;;0.60;;
3959;SDS011;1994;48.640;8.894;2022-09-19T00:36:59;0.70;;;0.60;;
3959;SDS011;1994;48.640;8.894;2022-09-19T00:39:24;0.83;;;0.70;;
3959;SDS011;1994;48.640;8.894;2022-09-19T00:41:51;0.70;;;0.70;;
3959;SDS011;1994;48.640;8.894;2022-09-19T00:49:30;0.87;;;0.87;;
3959;SDS011;1994;48.640;8.894;2022-09-19T00:52:03;1.00;;;0.90;;
3959;SDS011;1994;48.640;8.894;2022-09-19T00:54:36;1.17;;;1.07;;
3959;SDS011;1994;48.640;8.894;2022-09-19T00:57:08;2.40;;;1.13;;
3959;SDS011;1994;48.640;8.894;2022-09-19T00:59:40;0.80;;;0.77;;
3959;SDS011;1994;48.640;8.894;2022-09-19T01:02:11;2.63;;;1.10;;
3959;SDS011;1994;48.640;8.894;2022-09-19T01:04:39;1.00;;;0.80;;
3959;SDS011;1994;48.640;8.894;2022-09-19T01:07:14;0.93;;;0.83;;
3959;SDS011;1994;48.640;8.894;2022-09-19T01:10:43;1.00;;;0.90;;
3959;SDS011;1994;48.640;8.894;2022-09-19T01:13:54;1.00;;;0.70;;
3959;SDS011;1994;48.640;8.894;2022-09-19T01:16:59;2.10;;;1.90;;
3959;SDS011;1994;48.640;8.894;2022-09-19T01:23:11;1.43;;;1.30;;
3959;SDS011;1994;48.640;8.894;2022-09-19T01:28:35;2.80;;;1.20;;
3959;SDS011;1994;48.640;8.894;2022-09-19T01:31:13;1.60;;;1.50;;
3959;SDS011;1994;48.640;8.894;2022-09-19T01:34:08;1.50;;;1.20;;
3959;SDS011;1994;48.640;8.894;2022-09-19T01:37:15;1.00;;;0.90;;
3959;SDS011;1994;48.640;8.894;2022-09-19T01:39:47;1.00;;;0.90;;
3959;SDS011;1994;48.640;8.894;2022-09-19T01:42:17;2.73;;;1.20;;
3959;SDS011;1994;48.640;8.894;2022-09-19T01:44:45;1.87;;;1.00;;
3959;SDS011;1994;48.640;8.894;2022-09-19T01:49:48;1.20;;;1.10;;
3959;SDS011;1994;48.640;8.894;2022-09-19T01:55:41;1.20;;;1.10;;
3959;SDS011;1994;48.640;8.894;2022-09-19T01:58:24;1.10;;;1.00;;
3959;SDS011;1994;48.640;8.894;2022-09-19T02:04:19;1.17;;;1.07;;
3959;SDS011;1994;48.640;8.894;2022-09-19T02:09:49;1.10;;;1.00;;
3959;SDS011;1994;48.640;8.894;2022-09-19T02:12:26;2.10;;;1.10;;
3959;SDS011;1994;48.640;8.894;2022-09-19T02:14:56;1.77;;;1.17;;
3959;SDS011;1994;48.640;8.894;2022-09-19T02:17:28;1.27;;;1.17;;
3959;SDS011;1994;48.640;8.894;2022-09-19T02:20:07;1.20;;;1.10;;
3959;SDS011;1994;48.640;8.894;2022-09-19T02:22:39;1.47;;;1.13;;
3959;SDS011;1994;48.640;8.894;2022-09-19T02:25:14;1.13;;;1.03;;
3959;SDS011;1994;48.640;8.894;2022-09-19T02:27:47;1.33;;;1.10;;
3959;SDS011;1994;48.640;8.894;2022-09-19T02:30:28;1.50;;;1.07;;
3959;SDS011;1994;48.640;8.894;2022-09-19T02:32:54;0.90;;;0.90;;
3959;SDS011;1994;48.640;8.894;2022-09-19T02:35:24;2.03;;;1.00;;
3959;SDS011;1994;48.640;8.894;2022-09-19T02:38:24;1.20;;;1.10;;
3959;SDS011;1994;48.640;8.894;2022-09-19T02:43:40;2.67;;;1.33;;
3959;SDS011;1994;48.640;8.894;2022-09-19T02:52:16;2.97;;;1.17;;
3959;SDS011;1994;48.640;8.894;2022-09-19T02:54:50;1.13;;;1.03;;
3959;SDS011;1994;48.640;8.894;2022-09-19T02:57:21;11.40;;;1.47;;
3959;SDS011;1994;48.640;8.894;2022-09-19T02:59:49;1.50;;;1.00;;
3959;SDS011;1994;48.640;8.894;2022-09-19T03:02:24;6.83;;;1.50;;
3959;SDS011;1994;48.640;8.894;2022-09-19T03:04:59;1.60;;;1.30;;
3959;SDS011;1994;48.640;8.894;2022-09-19T03:07:52;1.43;;;1.20;;
3959;SDS011;1994;48.640;8.894;2022-09-19T03:10:31;1.63;;;1.53;;
3959;SDS011;1994;48.640;8.894;2022-09-19T03:13:05;1.73;;;1.20;;
3959;SDS011;1994;48.640;8.894;2022-09-19T03:15:36;1.90;;;1.47;;
3959;SDS011;1994;48.640;8.894;2022-09-19T03:18:45;2.13;;;1.10;;
3959;SDS011;1994;48.640;8.894;2022-09-19T03:21:12;1.17;;;1.00;;
3959;SDS011;1994;48.640;8.894;2022-09-19T03:23:44;1.87;;;1.77;;
3959;SDS011;1994;48.640;8.894;2022-09-19T03:26:16;3.13;;;1.73;;
3959;SDS011;1994;48.640;8.894;2022-09-19T03:28:45;1.07;;;0.97;;
3959;SDS011;1994;48.640;8.894;2022-09-19T03:31:12;1.27;;;1.10;;
3959;SDS011;1994;48.640;8.894;2022-09-19T03:33:38;2.27;;;1.03;;
3959;SDS011;1994;48.640;8.894;2022-09-19T03:36:06;1.27;;;1.00;;
3959;SDS011;1994;48.640;8.894;2022-09-19T03:38:33;1.30;;;1.20;;
3959;SDS011;1994;48.640;8.894;2022-09-19T03:41:01;2.70;;;0.90;;
3959;SDS011;1994;48.640;8.894;2022-09-19T03:43:27;2.23;;;0.97;;
3959;SDS011;1994;48.640;8.894;2022-09-19T03:45:54;1.10;;;1.00;;
3959;SDS011;1994;48.640;8.894;2022-09-19T03:48:21;3.30;;;1.27;;
3959;SDS011;1994;48.640;8.894;2022-09-19T03:50:48;2.57;;;0.93;;
3959;SDS011;1994;48.640;8.894;2022-09-19T03:53:14;2.93;;;1.20;;
3959;SDS011;1994;48.640;8.894;2022-09-19T03:55:40;3.80;;;1.10;;
3959;SDS011;1994;48.640;8.894;2022-09-19T03:58:07;4.93;;;1.97;;
3959;SDS011;1994;48.640;8.894;2022-09-19T04:00:35;9.30;;;1.40;;
3959;SDS011;1994;48.640;8.894;2022-09-19T04:03:01;2.53;;;1.30;;
3959;SDS011;1994;48.640;8.894;2022-09-19T04:05:28;3.57;;;1.67;;
3959;SDS011;1994;48.640;8.894;2022-09-19T04:07:53;1.93;;;1.40;;
3959;SDS011;1994;48.640;8.894;2022-09-19T04:10:19;1.13;;;0.90;;
3959;SDS011;1994;48.640;8.894;2022-09-19T04:12:46;7.23;;;1.40;;
3959;SDS011;1994;48.640;8.894;2022-09-19T04:15:13;4.73;;;1.23;;
3959;SDS011;1994;48.640;8.894;2022-09-19T04:17:40;4.23;;;1.53;;
3959;SDS011;1994;48.640;8.894;2022-09-19T04:20:06;1.50;;;1.40;;
3959;SDS011;1994;48.640;8.894;2022-09-19T04:22:35;1.67;;;1.33;;
3959;SDS011;1994;48.640;8.894;2022-09-19T04:25:03;3.60;;;1.60;;
3959;SDS011;1994;48.640;8.894;2022-09-19T04:27:30;3.23;;;1.20;;
3959;SDS011;1994;48.640;8.894;2022-09-19T04:29:56;2.50;;;1.10;;
3959;SDS011;1994;48.640;8.894;2022-09-19T04:32:21;3.30;;;1.30;;
3959;SDS011;1994;48.640;8.894;2022-09-19T04:34:47;2.50;;;1.33;;
3959;SDS011;1994;48.640;8.894;2022-09-19T04:37:14;3.07;;;1.20;;
3959;SDS011;1994;48.640;8.894;2022-09-19T04:39:40;1.87;;;1.07;;
3959;SDS011;1994;48.640;8.894;2022-09-19T04:42:06;3.10;;;1.00;;
3959;SDS011;1994;48.640;8.894;2022-09-19T04:44:33;2.30;;;1.47;;
3959;SDS011;1994;48.640;8.894;2022-09-19T04:46:58;1.53;;;0.97;;
3959;SDS011;1994;48.640;8.894;2022-09-19T04:49:24;5.30;;;1.20;;
3959;SDS011;1994;48.640;8.894;2022-09-19T04:52:00;1.50;;;1.40;;
3959;SDS011;1994;48.640;8.894;2022-09-19T04:54:27;9.90;;;1.53;;
3959;SDS011;1994;48.640;8.894;2022-09-19T04:56:53;1.63;;;1.30;;
3959;SDS011;1994;48.640;8.894;2022-09-19T04:59:19;6.30;;;1.53;;
3959;SDS011;1994;48.640;8.894;2022-09-19T05:01:45;3.63;;;1.40;;
3959;SDS011;1994;48.640;8.894;2022-09-19T05:04:10;2.90;;;1.53;;
3959;SDS011;1994;48.640;8.894;2022-09-19T05:06:36;2.60;;;1.10;;
3959;SDS011;1994;48.640;8.894;2022-09-19T05:09:02;2.90;;;1.33;;
3959;SDS011;1994;48.640;8.894;2022-09-19T05:11:28;6.03;;;1.77;;
3959;SDS011;1994;48.640;8.894;2022-09-19T05:13:53;1.90;;;1.17;;
3959;SDS011;1994;48.640;8.894;2022-09-19T05:16:19;7.03;;;1.57;;
3959;SDS011;1994;48.640;8.894;2022-09-19T05:18:45;2.73;;;1.20;;
3959;SDS011;1994;48.640;8.894;2022-09-19T05:21:12;1.83;;;1.10;;
3959;SDS011;1994;48.640;8.894;2022-09-19T05:23:40;1.60;;;1.30;;
3959;SDS011;1994;48.640;8.894;2022-09-19T05:26:08;4.60;;;1.57;;
3959;SDS011;1994;48.640;8.894;2022-09-19T05:28:42;7.63;;;1.43;;
3959;SDS011;1994;48.640;8.894;2022-09-19T05:31:12;1.80;;;1.10;;
3959;SDS011;1994;48.640;8.894;2022-09-19T05:33:38;3.37;;;3.07;;
3959;SDS011;1994;48.640;8.894;2022-09-19T05:36:04;3.67;;;1.67;;
3959;SDS011;1994;48.640;8.894;2022-09-19T05:38:31;3.13;;;1.37;;
3959;SDS011;1994;48.640;8.894;2022-09-19T05:40:58;3.43;;;1.30;;
3959;SDS011;1994;48.640;8.894;2022-09-19T05:43:26;4.17;;;1.13;;
3959;SDS011;1994;48.640;8.894;2022-09-19T05:45:52;7.37;;;2.03;;
3959;SDS011;1994;48.640;8.894;2022-09-19T05:48:20;4.90;;;1.40;;
3959;SDS011;1994;48.640;8.894;2022-09-19T05:50:47;4.63;;;1.50;;
3959;SDS011;1994;48.640;8.894;2022-09-19T05:53:14;4.60;;;1.67;;
3959;SDS011;1994;48.640;8.894;2022-09-19T05:56:00;1.30;;;1.10;;
3959;SDS011;1994;48.640;8.894;2022-09-19T05:58:26;4.20;;;1.90;;
3959;SDS011;1994;48.640;8.894;2022-09-19T06:00:53;7.70;;;2.40;;
3959;SDS011;1994;48.640;8.894;2022-09-19T06:03:19;2.40;;;1.27;;
3959;SDS011;1994;48.640;8.894;2022-09-19T06:05:47;4.77;;;2.17;;
3959;SDS011;1994;48.640;8.894;2022-09-19T06:08:19;6.37;;;2.40;;
3959;SDS011;1994;48.640;8.894;2022-09-19T06:10:46;3.00;;;2.20;;
3959;SDS011;1994;48.640;8.894;2022-09-19T06:13:17;3.40;;;2.20;;
3959;SDS011;1994;48.640;8.894;2022-09-19T06:15:45;3.20;;;2.27;;
3959;SDS011;1994;48.640;8.894;2022-09-19T06:18:12;8.33;;;2.43;;
3959;SDS011;1994;48.640;8.894;2022-09-19T06:20:41;6.40;;;2.40;;
3959;SDS011;1994;48.640;8.894;2022-09-19T06:23:09;10.20;;;1.90;;
3959;SDS011;1994;48.640;8.894;2022-09-19T06:25:36;2.00;;;1.43;;
3959;SDS011;1994;48.640;8.894;2022-09-19T06:28:10;12.80;;;2.63;;
3959;SDS011;1994;48.640;8.894;2022-09-19T06:30:37;4.50;;;2.07;;
3959;SDS011;1994;48.640;8.894;2022-09-19T06:33:06;1.93;;;1.40;;
3959;SDS011;1994;48.640;8.894;2022-09-19T06:35:32;5.00;;;2.20;;
3959;SDS011;1994;48.640;8.894;2022-09-19T06:37:59;10.17;;;2.07;;
3959;SDS011;1994;48.640;8.894;2022-09-19T06:40:27;9.50;;;1.97;;
3959;SDS011;1994;48.640;8.894;2022-09-19T06:43:01;4.83;;;1.50;;
3959;SDS011;1994;48.640;8.894;2022-09-19T06:45:32;8.33;;;1.77;;
3959;SDS011;1994;48.640;8.894;2022-09-19T06:48:05;4.57;;;1.37;;
3959;SDS011;1994;48.640;8.894;2022-09-19T06:50:33;3.37;;;1.60;;
3959;SDS011;1994;48.640;8.894;2022-09-19T06:53:00;10.73;;;2.30;;
3959;SDS011;1994;48.640;8.894;2022-09-19T06:55:26;4.20;;;2.00;;
3959;SDS011;1994;48.640;8.894;2022-09-19T07:00:26;9.50;;;1.70;;
3959;SDS011;1994;48.640;8.894;2022-09-19T07:03:10;4.23;;;1.50;;
3959;SDS011;1994;48.640;8.894;2022-09-19T07:05:39;4.60;;;2.10;;
3959;SDS011;1994;48.640;8.894;2022-09-19T07:08:07;2.00;;;1.47;;
3959;SDS011;1994;48.640;8.894;2022-09-19T07:10:35;3.93;;;1.97;;
3959;SDS011;1994;48.640;8.894;2022-09-19T07:13:02;5.67;;;1.93;;
3959;SDS011;1994;48.640;8.894;2022-09-19T07:15:33;5.67;;;1.70;;
3959;SDS011;1994;48.640;8.894;2022-09-19T07:18:00;4.90;;;2.30;;
3959;SDS011;1994;48.640;8.894;2022-09-19T07:20:27;5.07;;;1.50;;
3959;SDS011;1994;48.640;8.894;2022-09-19T07:23:12;3.73;;;1.87;;
3959;SDS011;1994;48.640;8.894;2022-09-19T07:25:42;2.97;;;1.80;;
3959;SDS011;1994;48.640;8.894;2022-09-19T07:28:09;5.77;;;1.57;;
3959;SDS011;1994;48.640;8.894;2022-09-19T07:30:38;2.47;;;1.87;;
3959;SDS011;1994;48.640;8.894;2022-09-19T07:33:06;8.30;;;1.80;;
3959;SDS011;1994;48.640;8.894;2022-09-19T07:35:35;6.60;;;1.87;;
3959;SDS011;1994;48.640;8.894;2022-09-19T07:38:03;2.50;;;1.60;;
3959;SDS011;1994;48.640;8.894;2022-09-19T07:40:29;8.37;;;2.53;;
3959;SDS011;1994;48.640;8.894;2022-09-19T07:42:58;6.10;;;1.73;;
3959;SDS011;1994;48.640;8.894;2022-09-19T07:45:26;6.43;;;1.87;;
3959;SDS011;1994;48.640;8.894;2022-09-19T07:47:52;3.53;;;1.50;;
3959;SDS011;1994;48.640;8.894;2022-09-19T07:50:20;8.37;;;1.47;;
3959;SDS011;1994;48.640;8.894;2022-09-19T07:52:46;3.50;;;2.00;;
3959;SDS011;1994;48.640;8.894;2022-09-19T07:55:14;6.20;;;1.83;;
3959;SDS011;1994;48.640;8.894;2022-09-19T07:57:50;5.67;;;2.20;;
3959;SDS011;1994;48.640;8.894;2022-09-19T08:00:17;13.30;;;1.87;;
3959;SDS011;1994;48.640;8.894;2022-09-19T08:02:43;3.90;;;1.40;;
3959;SDS011;1994;48.640;8.894;2022-09-19T08:05:17;1.60;;;1.50;;
3959;SDS011;1994;48.640;8.894;2022-09-19T08:07:43;6.83;;;2.50;;
3959;SDS011;1994;48.640;8.894;2022-09-19T08:10:08;5.40;;;2.77;;
3959;SDS011;1994;48.640;8.894;2022-09-19T08:12:34;5.90;;;1.83;;
3959;SDS011;1994;48.640;8.894;2022-09-19T08:15:00;8.43;;;3.00;;
3959;SDS011;1994;48.640;8.894;2022-09-19T08:17:26;5.83;;;2.10;;
3959;SDS011;1994;48.640;8.894;2022-09-19T08:19:52;3.50;;;2.00;;
3959;SDS011;1994;48.640;8.894;2022-09-19T08:22:19;4.37;;;1.70;;
3959;SDS011;1994;48.640;8.894;2022-09-19T08:24:45;3.10;;;1.53;;
3959;SDS011;1994;48.640;8.894;2022-09-19T08:27:11;6.40;;;2.13;;
3959;SDS011;1994;48.640;8.894;2022-09-19T08:29:38;2.10;;;1.90;;
3959;SDS011;1994;48.640;8.894;2022-09-19T08:32:04;3.43;;;1.70;;
3959;SDS011;1994;48.640;8.894;2022-09-19T08:34:31;9.07;;;2.53;;
3959;SDS011;1994;48.640;8.894;2022-09-19T08:36:57;4.93;;;2.07;;
3959;SDS011;1994;48.640;8.894;2022-09-19T08:39:25;7.60;;;2.00;;
3959;SDS011;1994;48.640;8.894;2022-09-19T08:47:30;8.27;;;2.23;;
3959;SDS011;1994;48.640;8.894;2022-09-19T08:50:00;7.50;;;2.27;;
3959;SDS011;1994;48.640;8.894;2022-09-19T08:52:47;7.10;;;2.17;;
3959;SDS011;1994;48.640;8.894;2022-09-19T08:55:18;6.03;;;1.63;;
3959;SDS011;1994;48.640;8.894;2022-09-19T08:57:54;9.27;;;1.90;;
3959;SDS011;1994;48.640;8.894;2022-09-19T09:00:24;5.40;;;1.53;;
3959;SDS011;1994;48.640;8.894;2022-09-19T09:03:02;6.27;;;2.23;;
3959;SDS011;1994;48.640;8.894;2022-09-19T09:22:39;5.93;;;1.87;;
3959;SDS011;1994;48.640;8.894;2022-09-19T09:25:24;3.53;;;1.83;;
3959;SDS011;1994;48.640;8.894;2022-09-19T09:28:30;5.53;;;1.80;;
3959;SDS011;1994;48.640;8.894;2022-09-19T09:34:04;1.73;;;1.47;;
3959;SDS011;1994;48.640;8.894;2022-09-19T09:36:48;2.33;;;2.13;;
3959;SDS011;1994;48.640;8.894;2022-09-19T09:39:31;6.20;;;1.73;;
3959;SDS011;1994;48.640;8.894;2022-09-19T09:42:22;5.10;;;1.83;;
3959;SDS011;1994;48.640;8.894;2022-09-19T09:45:08;3.73;;;2.00;;
3959;SDS011;1994;48.640;8.894;2022-09-19T09:47:57;4.07;;;1.77;;
3959;SDS011;1994;48.640;8.894;2022-09-19T09:51:14;4.73;;;1.70;;
3959;SDS011;1994;48.640;8.894;2022-09-19T09:57:02;4.03;;;1.60;;
3959;SDS011;1994;48.640;8.894;2022-09-19T09:59:51;3.30;;;1.50;;
3959;SDS011;1994;48.640;8.894;2022-09-19T10:02:59;8.03;;;1.57;;
3959;SDS011;1994;48.640;8.894;2022-09-19T10:06:19;1.90;;;1.67;;
3959;SDS011;1994;48.640;8.894;2022-09-19T10:08:57;3.17;;;1.73;;
3959;SDS011;1994;48.640;8.894;2022-09-19T10:11:55;5.70;;;1.60;;
3959;SDS011;1994;48.640;8.894;2022-09-19T10:14:43;4.00;;;2.10;;
3959;SDS011;1994;48.640;8.894;2022-09-19T10:17:12;6.33;;;1.80;;
3959;SDS011;1994;48.640;8.894;2022-09-19T10:19:45;3.13;;;1.40;;
3959;SDS011;1994;48.640;8.894;2022-09-19T10:22:16;6.60;;;1.90;;
3959;SDS011;1994;48.640;8.894;2022-09-19T10:24:52;3.23;;;1.63;;
3959;SDS011;1994;48.640;8.894;2022-09-19T10:27:36;4.77;;;1.43;;
3959;SDS011;1994;48.640;8.894;2022-09-19T10:30:15;7.93;;;1.80;;
3959;SDS011;1994;48.640;8.894;2022-09-19T10:32:43;7.67;;;1.53;;
3959;SDS011;1994;48.640;8.894;2022-09-19T10:38:09;2.53;;;1.70;;
3959;SDS011;1994;48.640;8.894;2022-09-19T10:40:59;1.83;;;1.60;;
3959;SDS011;1994;48.640;8.894;2022-09-19T10:43:28;1.87;;;1.60;;
3959;SDS011;1994;48.640;8.894;2022-09-19T10:46:29;3.00;;;1.70;;
3959;SDS011;1994;48.640;8.894;2022-09-19T10:49:02;1.83;;;1.23;;
3959;SDS011;1994;48.640;8.894;2022-09-19T10:51:41;3.90;;;2.20;;
3959;SDS011;1994;48.640;8.894;2022-09-19T10:54:10;1.97;;;1.67;;
3959;SDS011;1994;48.640;8.894;2022-09-19T10:56:46;3.30;;;1.70;;
3959;SDS011;1994;48.640;8.894;2022-09-19T11:01:38;2.20;;;1.33;;
3959;SDS011;1994;48.640;8.894;2022-09-19T11:04:24;3.50;;;1.83;;
3959;SDS011;1994;48.640;8.894;2022-09-19T11:07:00;3.40;;;1.50;;
3959;SDS011;1994;48.640;8.894;2022-09-19T11:09:42;2.50;;;1.83;;
3959;SDS011;1994;48.640;8.894;2022-09-19T11:12:10;2.80;;;1.30;;
3959;SDS011;1994;48.640;8.894;2022-09-19T11:14:45;7.20;;;1.50;;
3959;SDS011;1994;48.640;8.894;2022-09-19T11:26:09;1.77;;;1.27;;
3959;SDS011;1994;48.640;8.894;2022-09-19T11:41:12;1.30;;;1.00;;
3959;SDS011;1994;48.640;8.894;2022-09-19T11:50:09;1.03;;;0.93;;
3959;SDS011;1994;48.640;8.894;2022-09-19T11:53:25;1.40;;;1.20;;
3959;SDS011;1994;48.640;8.894;2022-09-19T11:59:25;1.30;;;1.20;;
3959;SDS011;1994;48.640;8.894;2022-09-19T12:02:47;3.70;;;1.20;;
3959;SDS011;1994;48.640;8.894;2022-09-19T12:11:19;3.53;;;1.20;;
3959;SDS011;1994;48.640;8.894;2022-09-19T12:13:52;3.67;;;1.20;;
3959;SDS011;1994;48.640;8.894;2022-09-19T12:16:25;2.27;;;1.30;;
3959;SDS011;1994;48.640;8.894;2022-09-19T12:19:25;4.90;;;2.53;;
3959;SDS011;1994;48.640;8.894;2022-09-19T12:22:15;1.60;;;1.20;;
3959;SDS011;1994;48.640;8.894;2022-09-19T12:24:50;1.20;;;1.10;;
3959;SDS011;1994;48.640;8.894;2022-09-19T12:27:50;1.90;;;1.67;;
3959;SDS011;1994;48.640;8.894;2022-09-19T12:30:25;1.80;;;1.70;;
3959;SDS011;1994;48.640;8.894;2022-09-19T12:36:15;1.30;;;1.10;;
3959;SDS011;1994;48.640;8.894;2022-09-19T12:39:19;5.03;;;1.30;;
3959;SDS011;1994;48.640;8.894;2022-09-19T12:42:06;5.97;;;1.50;;
3959;SDS011;1994;48.640;8.894;2022-09-19T12:45:15;4.20;;;1.50;;
3959;SDS011;1994;48.640;8.894;2022-09-19T12:50:38;2.80;;;2.37;;
3959;SDS011;1994;48.640;8.894;2022-09-19T12:56:06;2.10;;;1.30;;
3959;SDS011;1994;48.640;8.894;2022-09-19T12:59:03;1.67;;;0.90;;
3959;SDS011;1994;48.640;8.894;2022-09-19T13:01:46;1.50;;;1.20;;
3959;SDS011;1994;48.640;8.894;2022-09-19T13:07:15;5.60;;;1.10;;
3959;SDS011;1994;48.640;8.894;2022-09-19T13:09:58;3.67;;;1.43;;
3959;SDS011;1994;48.640;8.894;2022-09-19T13:17:58;2.30;;;1.40;;
3959;SDS011;1994;48.640;8.894;2022-09-19T13:20:44;2.50;;;1.03;;
3959;SDS011;1994;48.640;8.894;2022-09-19T13:23:30;2.30;;;1.13;;
3959;SDS011;1994;48.640;8.894;2022-09-19T13:28:45;2.60;;;1.40;;
3959;SDS011;1994;48.640;8.894;2022-09-19T13:31:22;3.53;;;1.60;;
3959;SDS011;1994;48.640;8.894;2022-09-19T13:36:59;1.57;;;1.20;;
3959;SDS011;1994;48.640;8.894;2022-09-19T13:42:27;1.47;;;1.00;;
3959;SDS011;1994;48.640;8.894;2022-09-19T13:50:41;3.93;;;1.50;;
3959;SDS011;1994;48.640;8.894;2022-09-19T13:53:31;4.30;;;1.33;;
3959;SDS011;1994;48.640;8.894;2022-09-19T13:56:19;1.67;;;1.20;;
3959;SDS011;1994;48.640;8.894;2022-09-19T13:58:50;4.90;;;2.80;;
3959;SDS011;1994;48.640;8.894;2022-09-19T14:01:39;3.63;;;1.80;;
3959;SDS011;1994;48.640;8.894;2022-09-19T14:04:17;6.23;;;1.30;;
3959;SDS011;1994;48.640;8.894;2022-09-19T14:07:02;1.53;;;1.10;;
3959;SDS011;1994;48.640;8.894;2022-09-19T14:18:54;1.40;;;1.30;;
3959;SDS011;1994;48.640;8.894;2022-09-19T14:21:49;3.67;;;1.10;;
3959;SDS011;1994;48.640;8.894;2022-09-19T14:24:02;11.73;;;1.60;;
3959;SDS011;1994;48.640;8.894;2022-09-19T14:29:46;1.77;;;1.50;;
3959;SDS011;1994;48.640;8.894;2022-09-19T14:32:30;1.20;;;1.03;;
3959;SDS011;1994;48.640;8.894;2022-09-19T14:38:31;1.10;;;0.90;;
3959;SDS011;1994;48.640;8.894;2022-09-19T14:41:13;6.80;;;2.70;;
3959;SDS011;1994;48.640;8.894;2022-09-19T14:47:27;3.17;;;1.43;;
3959;SDS011;1994;48.640;8.894;2022-09-19T14:50:15;3.87;;;1.60;;
3959;SDS011;1994;48.640;8.894;2022-09-19T14:52:53;3.67;;;1.60;;
3959;SDS011;1994;48.640;8.894;2022-09-19T14:55:40;2.50;;;1.30;;
3959;SDS011;1994;48.640;8.894;2022-09-19T14:58:28;3.80;;;2.00;;
3959;SDS011;1994;48.640;8.894;2022-09-19T15:06:42;1.77;;;1.50;;
3959;SDS011;1994;48.640;8.894;2022-09-19T15:09:29;3.90;;;1.33;;
3959;SDS011;1994;48.640;8.894;2022-09-19T15:12:46;9.97;;;1.43;;
3959;SDS011;1994;48.640;8.894;2022-09-19T15:14:53;3.53;;;1.30;;
3959;SDS011;1994;48.640;8.894;2022-09-19T15:17:26;1.43;;;1.17;;
3959;SDS011;1994;48.640;8.894;2022-09-19T15:19:59;3.10;;;1.10;;
3959;SDS011;1994;48.640;8.894;2022-09-19T15:25:19;2.40;;;1.50;;
3959;SDS011;1994;48.640;8.894;2022-09-19T15:27:55;1.87;;;1.27;;
3959;SDS011;1994;48.640;8.894;2022-09-19T15:30:28;4.47;;;1.27;;
3959;SDS011;1994;48.640;8.894;2022-09-19T15:33:02;1.63;;;1.30;;
3959;SDS011;1994;48.640;8.894;2022-09-19T15:35:36;7.17;;;1.50;;
3959;SDS011;1994;48.640;8.894;2022-09-19T15:38:06;4.50;;;2.10;;
3959;SDS011;1994;48.640;8.894;2022-09-19T15:40:37;2.53;;;2.20;;
3959;SDS011;1994;48.640;8.894;2022-09-19T15:43:06;12.53;;;1.90;;
3959;SDS011;1994;48.640;8.894;2022-09-19T15:45:42;5.63;;;1.80;;
3959;SDS011;1994;48.640;8.894;2022-09-19T15:51:24;5.30;;;1.87;;
3959;SDS011;1994;48.640;8.894;2022-09-19T15:53:56;6.30;;;3.50;;
3959;SDS011;1994;48.640;8.894;2022-09-19T15:56:22;13.23;;;5.10;;
3959;SDS011;1994;48.640;8.894;2022-09-19T15:58:56;2.80;;;2.23;;
3959;SDS011;1994;48.640;8.894;2022-09-19T16:01:32;6.47;;;2.20;;
3959;SDS011;1994;48.640;8.894;2022-09-19T16:06:44;2.23;;;2.03;;
3959;SDS011;1994;48.640;8.894;2022-09-19T16:09:42;8.60;;;4.33;;
3959;SDS011;1994;48.640;8.894;2022-09-19T16:14:58;18.97;;;3.53;;
3959;SDS011;1994;48.640;8.894;2022-09-19T16:20:36;11.03;;;5.17;;
3959;SDS011;1994;48.640;8.894;2022-09-19T16:23:12;6.60;;;4.60;;
3959;SDS011;1994;48.640;8.894;2022-09-19T16:25:51;2.03;;;1.60;;
3959;SDS011;1994;48.640;8.894;2022-09-19T16:30:58;4.13;;;2.23;;
3959;SDS011;1994;48.640;8.894;2022-09-19T16:34:04;3.70;;;2.30;;
3959;SDS011;1994;48.640;8.894;2022-09-19T16:36:44;4.43;;;2.40;;
3959;SDS011;1994;48.640;8.894;2022-09-19T16:46:46;14.57;;;4.17;;
3959;SDS011;1994;48.640;8.894;2022-09-19T16:49:34;3.83;;;2.90;;
3959;SDS011;1994;48.640;8.894;2022-09-19T16:52:00;7.17;;;3.43;;
3959;SDS011;1994;48.640;8.894;2022-09-19T16:54:28;5.47;;;2.90;;
3959;SDS011;1994;48.640;8.894;2022-09-19T16:56:54;4.30;;;2.10;;
3959;SDS011;1994;48.640;8.894;2022-09-19T16:59:20;1.40;;;1.30;;
3959;SDS011;1994;48.640;8.894;2022-09-19T17:01:48;4.27;;;1.57;;
3959;SDS011;1994;48.640;8.894;2022-09-19T17:04:14;4.90;;;2.53;;
3959;SDS011;1994;48.640;8.894;2022-09-19T17:06:44;5.00;;;2.10;;
3959;SDS011;1994;48.640;8.894;2022-09-19T17:09:11;5.43;;;2.23;;
3959;SDS011;1994;48.640;8.894;2022-09-19T17:11:37;2.73;;;1.90;;
3959;SDS011;1994;48.640;8.894;2022-09-19T17:14:17;6.73;;;2.03;;
3959;SDS011;1994;48.640;8.894;2022-09-19T17:16:44;4.50;;;3.23;;
3959;SDS011;1994;48.640;8.894;2022-09-19T17:19:11;3.63;;;2.20;;
3959;SDS011;1994;48.640;8.894;2022-09-19T17:21:37;12.47;;;2.70;;
3959;SDS011;1994;48.640;8.894;2022-09-19T17:24:05;4.67;;;3.30;;
3959;SDS011;1994;48.640;8.894;2022-09-19T17:26:31;3.27;;;2.60;;
3959;SDS011;1994;48.640;8.894;2022-09-19T17:28:56;4.07;;;3.40;;
3959;SDS011;1994;48.640;8.894;2022-09-19T17:31:22;4.57;;;3.20;;
3959;SDS011;1994;48.640;8.894;2022-09-19T17:33:49;3.40;;;2.50;;
3959;SDS011;1994;48.640;8.894;2022-09-19T17:36:14;3.53;;;2.87;;
3959;SDS011;1994;48.640;8.894;2022-09-19T17:38:43;7.43;;;2.77;;
3959;SDS011;1994;48.640;8.894;2022-09-19T17:41:10;11.60;;;5.30;;
3959;SDS011;1994;48.640;8.894;2022-09-19T17:43:39;22.83;;;8.70;;
3959;SDS011;1994;48.640;8.894;2022-09-19T17:46:07;8.23;;;4.03;;
3959;SDS011;1994;48.640;8.894;2022-09-19T17:48:35;6.97;;;3.00;;
3959;SDS011;1994;48.640;8.894;2022-09-19T17:51:05;5.17;;;3.47;;
3959;SDS011;1994;48.640;8.894;2022-09-19T17:53:41;16.47;;;6.20;;
3959;SDS011;1994;48.640;8.894;2022-09-19T17:56:11;22.20;;;9.70;;
3959;SDS011;1994;48.640;8.894;2022-09-19T17:58:43;16.93;;;9.40;;
3959;SDS011;1994;48.640;8.894;2022-09-19T18:01:17;19.03;;;7.10;;
3959;SDS011;1994;48.640;8.894;2022-09-19T18:04:03;15.63;;;8.10;;
3959;SDS011;1994;48.640;8.894;2022-09-19T18:06:31;13.33;;;5.70;;
3959;SDS011;1994;48.640;8.894;2022-09-19T18:08:59;7.17;;;4.70;;
3959;SDS011;1994;48.640;8.894;2022-09-19T18:11:25;5.27;;;3.20;;
3959;SDS011;1994;48.640;8.894;2022-09-19T18:13:53;6.47;;;3.30;;
3959;SDS011;1994;48.640;8.894;2022-09-19T18:16:19;5.70;;;3.20;;
3959;SDS011;1994;48.640;8.894;2022-09-19T18:18:46;4.40;;;3.47;;
3959;SDS011;1994;48.640;8.894;2022-09-19T18:21:14;5.70;;;4.50;;
3959;SDS011;1994;48.640;8.894;2022-09-19T18:23:40;5.33;;;2.60;;
3959;SDS011;1994;48.640;8.894;2022-09-19T18:26:15;3.87;;;2.90;;
3959;SDS011;1994;48.640;8.894;2022-09-19T18:28:44;3.70;;;2.40;;
3959;SDS011;1994;48.640;8.894;2022-09-19T18:31:15;4.57;;;2.80;;
3959;SDS011;1994;48.640;8.894;2022-09-19T18:33:41;3.77;;;2.70;;
3959;SDS011;1994;48.640;8.894;2022-09-19T18:36:13;9.03;;;4.00;;
3959;SDS011;1994;48.640;8.894;2022-09-19T18:38:42;6.33;;;4.00;;
3959;SDS011;1994;48.640;8.894;2022-09-19T18:41:09;5.70;;;4.10;;
3959;SDS011;1994;48.640;8.894;2022-09-19T18:43:36;7.70;;;4.50;;
3959;SDS011;1994;48.640;8.894;2022-09-19T18:46:03;8.30;;;4.57;;
3959;SDS011;1994;48.640;8.894;2022-09-19T18:48:32;6.10;;;4.77;;
3959;SDS011;1994;48.640;8.894;2022-09-19T18:50:58;7.67;;;5.10;;
3959;SDS011;1994;48.640;8.894;2022-09-19T18:53:25;16.23;;;5.53;;
3959;SDS011;1994;48.640;8.894;2022-09-19T18:55:52;7.20;;;4.57;;
3959;SDS011;1994;48.640;8.894;2022-09-19T18:58:19;8.47;;;3.60;;
3959;SDS011;1994;48.640;8.894;2022-09-19T19:00:46;9.73;;;4.53;;
3959;SDS011;1994;48.640;8.894;2022-09-19T19:03:13;9.47;;;4.87;;